sensor_id;sensor_type;location;lat;lon;timestamp;P1;durP1;ratioP1;P2;durP2;ratioP2
33074;SDS011;19433;51.292;6.868;2023-04-24T00:02:11;1.30;;;1.10;;
33074;SDS011;19433;51.292;6.868;2023-04-24T00:04:37;1.60;;;1.50;;
33074;SDS011;19433;51.292;6.868;2023-04-24T00:07:05;1.63;;;1.30;;
33074;SDS011;19433;51.292;6.868;2023-04-24T00:09:31;1.67;;;1.40;;
33074;SDS011;19433;51.292;6.868;2023-04-24T00:11:57;1.30;;;1.20;;
33074;SDS011;19433;51.292;6.868;2023-04-24T00:14:22;3.10;;;1.67;;
33074;SDS011;19433;51.292;6.868;2023-04-24T00:16:48;1.40;;;1.30;;
33074;SDS011;19433;51.292;6.868;2023-04-24T00:19:13;1.30;;;1.20;;
33074;SDS011;19433;51.292;6.868;2023-04-24T00:21:39;1.50;;;1.40;;
33074;SDS011;19433;51.292;6.868;2023-04-24T00:24:05;1.60;;;1.50;;
33074;SDS011;19433;51.292;6.868;2023-04-24T00:26:30;1.40;;;1.30;;
33074;SDS011;19433;51.292;6.868;2023-04-24T00:28:55;1.60;;;1.50;;
33074;SDS011;19433;51.292;6.868;2023-04-24T00:31:21;1.60;;;1.50;;
33074;SDS011;19433;51.292;6.868;2023-04-24T00:33:46;1.53;;;1.43;;
33074;SDS011;19433;51.292;6.868;2023-04-24T00:36:11;2.77;;;1.90;;
33074;SDS011;19433;51.292;6.868;2023-04-24T00:38:36;1.90;;;1.80;;
33074;SDS011;19433;51.292;6.868;2023-04-24T00:41:02;1.87;;;1.60;;
33074;SDS011;19433;51.292;6.868;2023-04-24T00:43:27;1.93;;;1.83;;
33074;SDS011;19433;51.292;6.868;2023-04-24T00:45:52;1.50;;;1.40;;
33074;SDS011;19433;51.292;6.868;2023-04-24T00:48:19;2.10;;;2.00;;
33074;SDS011;19433;51.292;6.868;2023-04-24T00:50:45;1.90;;;1.80;;
33074;SDS011;19433;51.292;6.868;2023-04-24T00:53:10;3.93;;;1.80;;
33074;SDS011;19433;51.292;6.868;2023-04-24T00:55:36;2.63;;;2.23;;
33074;SDS011;19433;51.292;6.868;2023-04-24T00:58:02;1.87;;;1.77;;
33074;SDS011;19433;51.292;6.868;2023-04-24T01:00:27;1.80;;;1.70;;
33074;SDS011;19433;51.292;6.868;2023-04-24T01:02:53;1.67;;;1.53;;
33074;SDS011;19433;51.292;6.868;2023-04-24T01:05:20;2.30;;;2.10;;
33074;SDS011;19433;51.292;6.868;2023-04-24T01:07:45;2.33;;;1.70;;
33074;SDS011;19433;51.292;6.868;2023-04-24T01:10:13;2.07;;;1.87;;
33074;SDS011;19433;51.292;6.868;2023-04-24T01:12:39;2.33;;;1.97;;
33074;SDS011;19433;51.292;6.868;2023-04-24T01:15:05;2.40;;;2.20;;
33074;SDS011;19433;51.292;6.868;2023-04-24T01:17:31;2.30;;;2.20;;
33074;SDS011;19433;51.292;6.868;2023-04-24T01:19:57;2.90;;;2.70;;
33074;SDS011;19433;51.292;6.868;2023-04-24T01:22:23;2.90;;;2.40;;
33074;SDS011;19433;51.292;6.868;2023-04-24T01:24:49;2.40;;;2.20;;
33074;SDS011;19433;51.292;6.868;2023-04-24T01:27:14;3.00;;;2.70;;
33074;SDS011;19433;51.292;6.868;2023-04-24T01:29:40;2.97;;;2.77;;
33074;SDS011;19433;51.292;6.868;2023-04-24T01:32:06;4.03;;;3.50;;
33074;SDS011;19433;51.292;6.868;2023-04-24T01:34:32;4.07;;;3.23;;
33074;SDS011;19433;51.292;6.868;2023-04-24T01:36:58;4.00;;;3.70;;
33074;SDS011;19433;51.292;6.868;2023-04-24T01:39:24;5.47;;;3.70;;
33074;SDS011;19433;51.292;6.868;2023-04-24T01:41:50;4.63;;;4.23;;
33074;SDS011;19433;51.292;6.868;2023-04-24T01:44:17;5.73;;;5.13;;
33074;SDS011;19433;51.292;6.868;2023-04-24T01:46:42;5.77;;;5.27;;
33074;SDS011;19433;51.292;6.868;2023-04-24T01:49:08;7.23;;;6.60;;
33074;SDS011;19433;51.292;6.868;2023-04-24T01:51:33;5.60;;;5.17;;
33074;SDS011;19433;51.292;6.868;2023-04-24T01:53:58;7.50;;;6.77;;
33074;SDS011;19433;51.292;6.868;2023-04-24T01:56:24;8.00;;;6.47;;
33074;SDS011;19433;51.292;6.868;2023-04-24T01:58:50;8.40;;;7.63;;
33074;SDS011;19433;51.292;6.868;2023-04-24T02:01:23;7.80;;;7.10;;
33074;SDS011;19433;51.292;6.868;2023-04-24T02:03:48;8.13;;;7.43;;
33074;SDS011;19433;51.292;6.868;2023-04-24T02:06:14;8.50;;;6.43;;
33074;SDS011;19433;51.292;6.868;2023-04-24T02:08:39;7.90;;;7.10;;
33074;SDS011;19433;51.292;6.868;2023-04-24T02:11:04;9.17;;;8.13;;
33074;SDS011;19433;51.292;6.868;2023-04-24T02:13:30;8.10;;;7.30;;
33074;SDS011;19433;51.292;6.868;2023-04-24T02:15:57;8.70;;;7.90;;
33074;SDS011;19433;51.292;6.868;2023-04-24T02:18:23;8.70;;;7.80;;
33074;SDS011;19433;51.292;6.868;2023-04-24T02:20:48;10.37;;;9.23;;
33074;SDS011;19433;51.292;6.868;2023-04-24T02:23:14;11.60;;;8.40;;
33074;SDS011;19433;51.292;6.868;2023-04-24T02:25:39;12.53;;;8.80;;
33074;SDS011;19433;51.292;6.868;2023-04-24T02:28:04;9.70;;;8.23;;
33074;SDS011;19433;51.292;6.868;2023-04-24T02:30:30;11.87;;;9.40;;
33074;SDS011;19433;51.292;6.868;2023-04-24T02:32:55;9.83;;;8.93;;
33074;SDS011;19433;51.292;6.868;2023-04-24T02:35:20;9.00;;;8.20;;
33074;SDS011;19433;51.292;6.868;2023-04-24T02:37:46;9.10;;;8.20;;
33074;SDS011;19433;51.292;6.868;2023-04-24T02:40:12;10.67;;;8.83;;
33074;SDS011;19433;51.292;6.868;2023-04-24T02:42:37;10.13;;;9.23;;
33074;SDS011;19433;51.292;6.868;2023-04-24T02:45:02;9.93;;;9.07;;
33074;SDS011;19433;51.292;6.868;2023-04-24T02:47:28;11.47;;;10.00;;
33074;SDS011;19433;51.292;6.868;2023-04-24T02:49:53;10.60;;;9.30;;
33074;SDS011;19433;51.292;6.868;2023-04-24T02:52:19;11.77;;;10.17;;
33074;SDS011;19433;51.292;6.868;2023-04-24T02:54:44;9.17;;;8.37;;
33074;SDS011;19433;51.292;6.868;2023-04-24T02:57:09;10.33;;;9.30;;
33074;SDS011;19433;51.292;6.868;2023-04-24T02:59:35;12.13;;;10.30;;
33074;SDS011;19433;51.292;6.868;2023-04-24T03:02:00;11.70;;;10.03;;
33074;SDS011;19433;51.292;6.868;2023-04-24T03:04:25;13.23;;;10.33;;
33074;SDS011;19433;51.292;6.868;2023-04-24T03:06:51;11.27;;;10.17;;
33074;SDS011;19433;51.292;6.868;2023-04-24T03:09:19;11.50;;;9.87;;
33074;SDS011;19433;51.292;6.868;2023-04-24T03:11:45;10.80;;;9.67;;
33074;SDS011;19433;51.292;6.868;2023-04-24T03:14:10;11.53;;;9.83;;
33074;SDS011;19433;51.292;6.868;2023-04-24T03:16:35;12.10;;;9.70;;
33074;SDS011;19433;51.292;6.868;2023-04-24T03:19:01;11.73;;;10.53;;
33074;SDS011;19433;51.292;6.868;2023-04-24T03:21:26;16.17;;;9.93;;
33074;SDS011;19433;51.292;6.868;2023-04-24T03:23:52;12.97;;;11.57;;
33074;SDS011;19433;51.292;6.868;2023-04-24T03:26:17;11.73;;;10.60;;
33074;SDS011;19433;51.292;6.868;2023-04-24T03:28:42;11.83;;;10.67;;
33074;SDS011;19433;51.292;6.868;2023-04-24T03:31:08;11.77;;;10.57;;
33074;SDS011;19433;51.292;6.868;2023-04-24T03:33:33;11.03;;;10.03;;
33074;SDS011;19433;51.292;6.868;2023-04-24T03:35:58;11.57;;;10.00;;
33074;SDS011;19433;51.292;6.868;2023-04-24T03:38:24;11.03;;;9.93;;
33074;SDS011;19433;51.292;6.868;2023-04-24T03:40:50;13.30;;;9.87;;
33074;SDS011;19433;51.292;6.868;2023-04-24T03:43:15;11.80;;;10.70;;
33074;SDS011;19433;51.292;6.868;2023-04-24T03:45:41;10.07;;;9.07;;
33074;SDS011;19433;51.292;6.868;2023-04-24T03:48:06;11.17;;;9.00;;
33074;SDS011;19433;51.292;6.868;2023-04-24T03:50:32;11.07;;;9.30;;
33074;SDS011;19433;51.292;6.868;2023-04-24T03:52:57;12.70;;;9.87;;
33074;SDS011;19433;51.292;6.868;2023-04-24T03:55:23;11.63;;;10.43;;
33074;SDS011;19433;51.292;6.868;2023-04-24T03:57:48;9.23;;;8.43;;
33074;SDS011;19433;51.292;6.868;2023-04-24T04:00:13;11.80;;;9.17;;
33074;SDS011;19433;51.292;6.868;2023-04-24T04:02:39;11.30;;;8.90;;
33074;SDS011;19433;51.292;6.868;2023-04-24T04:05:04;9.93;;;9.10;;
33074;SDS011;19433;51.292;6.868;2023-04-24T04:07:30;11.00;;;9.80;;
33074;SDS011;19433;51.292;6.868;2023-04-24T04:09:55;10.27;;;9.40;;
33074;SDS011;19433;51.292;6.868;2023-04-24T04:12:20;10.30;;;9.40;;
33074;SDS011;19433;51.292;6.868;2023-04-24T04:14:46;10.30;;;9.40;;
33074;SDS011;19433;51.292;6.868;2023-04-24T04:17:11;12.43;;;11.30;;
33074;SDS011;19433;51.292;6.868;2023-04-24T04:19:36;11.43;;;9.97;;
33074;SDS011;19433;51.292;6.868;2023-04-24T04:22:02;11.13;;;10.03;;
33074;SDS011;19433;51.292;6.868;2023-04-24T04:24:27;12.43;;;9.97;;
33074;SDS011;19433;51.292;6.868;2023-04-24T04:26:53;10.73;;;9.63;;
33074;SDS011;19433;51.292;6.868;2023-04-24T04:29:21;11.20;;;10.17;;
33074;SDS011;19433;51.292;6.868;2023-04-24T04:31:47;10.43;;;9.43;;
33074;SDS011;19433;51.292;6.868;2023-04-24T04:34:13;11.17;;;9.97;;
33074;SDS011;19433;51.292;6.868;2023-04-24T04:36:39;10.47;;;9.53;;
33074;SDS011;19433;51.292;6.868;2023-04-24T04:39:05;11.67;;;8.80;;
33074;SDS011;19433;51.292;6.868;2023-04-24T04:41:41;11.23;;;8.83;;
33074;SDS011;19433;51.292;6.868;2023-04-24T04:44:07;10.50;;;9.10;;
33074;SDS011;19433;51.292;6.868;2023-04-24T04:46:34;9.17;;;8.40;;
33074;SDS011;19433;51.292;6.868;2023-04-24T04:49:02;10.60;;;9.60;;
33074;SDS011;19433;51.292;6.868;2023-04-24T04:51:28;10.80;;;8.53;;
33074;SDS011;19433;51.292;6.868;2023-04-24T04:53:54;14.23;;;9.13;;
33074;SDS011;19433;51.292;6.868;2023-04-24T04:56:19;9.33;;;8.43;;
33074;SDS011;19433;51.292;6.868;2023-04-24T04:58:45;9.30;;;8.50;;
33074;SDS011;19433;51.292;6.868;2023-04-24T05:01:10;9.43;;;8.60;;
33074;SDS011;19433;51.292;6.868;2023-04-24T05:03:36;11.10;;;9.47;;
33074;SDS011;19433;51.292;6.868;2023-04-24T05:06:01;11.00;;;9.90;;
33074;SDS011;19433;51.292;6.868;2023-04-24T05:08:27;9.70;;;8.90;;
33074;SDS011;19433;51.292;6.868;2023-04-24T05:10:52;10.73;;;9.47;;
33074;SDS011;19433;51.292;6.868;2023-04-24T05:13:18;10.60;;;9.70;;
33074;SDS011;19433;51.292;6.868;2023-04-24T05:15:43;10.20;;;9.30;;
33074;SDS011;19433;51.292;6.868;2023-04-24T05:18:09;11.17;;;10.17;;
33074;SDS011;19433;51.292;6.868;2023-04-24T05:20:34;11.50;;;9.90;;
33074;SDS011;19433;51.292;6.868;2023-04-24T05:22:59;12.10;;;10.90;;
33074;SDS011;19433;51.292;6.868;2023-04-24T05:25:25;10.97;;;9.97;;
33074;SDS011;19433;51.292;6.868;2023-04-24T05:27:50;10.83;;;9.93;;
33074;SDS011;19433;51.292;6.868;2023-04-24T05:30:16;12.30;;;10.90;;
33074;SDS011;19433;51.292;6.868;2023-04-24T05:32:41;11.80;;;10.63;;
33074;SDS011;19433;51.292;6.868;2023-04-24T05:35:06;11.50;;;10.50;;
33074;SDS011;19433;51.292;6.868;2023-04-24T05:37:32;10.67;;;9.73;;
33074;SDS011;19433;51.292;6.868;2023-04-24T05:39:57;12.87;;;11.67;;
33074;SDS011;19433;51.292;6.868;2023-04-24T05:42:23;13.83;;;11.57;;
33074;SDS011;19433;51.292;6.868;2023-04-24T05:44:48;12.90;;;9.70;;
33074;SDS011;19433;51.292;6.868;2023-04-24T05:47:14;12.10;;;9.67;;
33074;SDS011;19433;51.292;6.868;2023-04-24T05:49:39;11.10;;;9.77;;
33074;SDS011;19433;51.292;6.868;2023-04-24T05:52:04;10.90;;;9.93;;
33074;SDS011;19433;51.292;6.868;2023-04-24T05:54:31;10.40;;;9.40;;
33074;SDS011;19433;51.292;6.868;2023-04-24T05:56:56;11.43;;;10.30;;
33074;SDS011;19433;51.292;6.868;2023-04-24T05:59:22;10.97;;;9.70;;
33074;SDS011;19433;51.292;6.868;2023-04-24T06:01:47;10.80;;;8.80;;
33074;SDS011;19433;51.292;6.868;2023-04-24T06:04:12;9.20;;;8.30;;
33074;SDS011;19433;51.292;6.868;2023-04-24T06:06:38;9.90;;;8.90;;
33074;SDS011;19433;51.292;6.868;2023-04-24T06:09:04;9.67;;;8.77;;
33074;SDS011;19433;51.292;6.868;2023-04-24T06:11:29;9.87;;;8.97;;
33074;SDS011;19433;51.292;6.868;2023-04-24T06:13:55;10.80;;;9.73;;
33074;SDS011;19433;51.292;6.868;2023-04-24T06:16:20;10.80;;;9.70;;
33074;SDS011;19433;51.292;6.868;2023-04-24T06:18:45;10.53;;;9.50;;
33074;SDS011;19433;51.292;6.868;2023-04-24T06:21:12;10.20;;;9.20;;
33074;SDS011;19433;51.292;6.868;2023-04-24T06:23:37;13.50;;;10.67;;
33074;SDS011;19433;51.292;6.868;2023-04-24T06:26:02;9.50;;;8.60;;
33074;SDS011;19433;51.292;6.868;2023-04-24T06:28:28;11.03;;;10.03;;
33074;SDS011;19433;51.292;6.868;2023-04-24T06:30:53;12.87;;;9.80;;
33074;SDS011;19433;51.292;6.868;2023-04-24T06:33:18;10.30;;;9.30;;
33074;SDS011;19433;51.292;6.868;2023-04-24T06:35:44;10.97;;;9.73;;
33074;SDS011;19433;51.292;6.868;2023-04-24T06:38:09;11.07;;;8.97;;
33074;SDS011;19433;51.292;6.868;2023-04-24T06:40:34;9.33;;;8.53;;
33074;SDS011;19433;51.292;6.868;2023-04-24T06:43:00;8.77;;;8.00;;
33074;SDS011;19433;51.292;6.868;2023-04-24T06:45:27;10.13;;;9.23;;
33074;SDS011;19433;51.292;6.868;2023-04-24T06:47:53;9.33;;;8.43;;
33074;SDS011;19433;51.292;6.868;2023-04-24T06:50:18;9.20;;;7.37;;
33074;SDS011;19433;51.292;6.868;2023-04-24T06:52:44;8.90;;;8.17;;
33074;SDS011;19433;51.292;6.868;2023-04-24T06:55:09;8.27;;;7.60;;
33074;SDS011;19433;51.292;6.868;2023-04-24T06:57:36;9.30;;;8.30;;
33074;SDS011;19433;51.292;6.868;2023-04-24T07:00:01;9.20;;;8.00;;
33074;SDS011;19433;51.292;6.868;2023-04-24T07:02:28;8.70;;;7.90;;
33074;SDS011;19433;51.292;6.868;2023-04-24T07:04:53;10.10;;;8.00;;
33074;SDS011;19433;51.292;6.868;2023-04-24T07:07:19;11.53;;;9.37;;
33074;SDS011;19433;51.292;6.868;2023-04-24T07:09:44;9.10;;;8.30;;
33074;SDS011;19433;51.292;6.868;2023-04-24T07:12:10;10.13;;;9.10;;
33074;SDS011;19433;51.292;6.868;2023-04-24T07:14:37;10.30;;;9.37;;
33074;SDS011;19433;51.292;6.868;2023-04-24T07:17:03;8.10;;;7.30;;
33074;SDS011;19433;51.292;6.868;2023-04-24T07:19:29;11.73;;;6.20;;
33074;SDS011;19433;51.292;6.868;2023-04-24T07:21:54;6.30;;;5.70;;
33074;SDS011;19433;51.292;6.868;2023-04-24T07:24:20;9.17;;;6.83;;
33074;SDS011;19433;51.292;6.868;2023-04-24T07:26:45;7.43;;;5.43;;
33074;SDS011;19433;51.292;6.868;2023-04-24T07:29:11;9.87;;;6.10;;
33074;SDS011;19433;51.292;6.868;2023-04-24T07:31:38;6.23;;;5.73;;
33074;SDS011;19433;51.292;6.868;2023-04-24T07:34:05;7.20;;;5.60;;
33074;SDS011;19433;51.292;6.868;2023-04-24T07:36:31;5.20;;;4.80;;
33074;SDS011;19433;51.292;6.868;2023-04-24T07:38:57;2.80;;;2.60;;
33074;SDS011;19433;51.292;6.868;2023-04-24T07:41:22;3.20;;;2.87;;
33074;SDS011;19433;51.292;6.868;2023-04-24T07:43:49;2.00;;;1.90;;
33074;SDS011;19433;51.292;6.868;2023-04-24T07:46:14;1.10;;;1.10;;
33074;SDS011;19433;51.292;6.868;2023-04-24T07:48:40;2.30;;;1.30;;
33074;SDS011;19433;51.292;6.868;2023-04-24T07:51:05;0.90;;;0.90;;
33074;SDS011;19433;51.292;6.868;2023-04-24T07:53:31;1.30;;;1.20;;
33074;SDS011;19433;51.292;6.868;2023-04-24T07:55:56;1.10;;;1.00;;
33074;SDS011;19433;51.292;6.868;2023-04-24T07:58:21;3.80;;;1.70;;
33074;SDS011;19433;51.292;6.868;2023-04-24T08:00:47;1.23;;;1.20;;
33074;SDS011;19433;51.292;6.868;2023-04-24T08:03:12;1.13;;;1.03;;
33074;SDS011;19433;51.292;6.868;2023-04-24T08:05:38;1.00;;;1.00;;
33074;SDS011;19433;51.292;6.868;2023-04-24T08:08:03;1.50;;;1.40;;
33074;SDS011;19433;51.292;6.868;2023-04-24T08:10:29;1.30;;;1.27;;
33074;SDS011;19433;51.292;6.868;2023-04-24T08:12:54;2.67;;;1.50;;
33074;SDS011;19433;51.292;6.868;2023-04-24T08:15:20;1.23;;;1.20;;
33074;SDS011;19433;51.292;6.868;2023-04-24T08:17:46;2.30;;;1.50;;
33074;SDS011;19433;51.292;6.868;2023-04-24T08:20:12;5.80;;;2.03;;
33074;SDS011;19433;51.292;6.868;2023-04-24T08:22:41;4.33;;;1.93;;
33074;SDS011;19433;51.292;6.868;2023-04-24T08:25:07;4.27;;;2.03;;
33074;SDS011;19433;51.292;6.868;2023-04-24T08:27:33;1.80;;;1.70;;
33074;SDS011;19433;51.292;6.868;2023-04-24T08:29:59;3.20;;;2.03;;
33074;SDS011;19433;51.292;6.868;2023-04-24T08:32:25;2.23;;;1.70;;
33074;SDS011;19433;51.292;6.868;2023-04-24T08:34:53;6.63;;;2.33;;
33074;SDS011;19433;51.292;6.868;2023-04-24T08:37:21;3.13;;;1.87;;
33074;SDS011;19433;51.292;6.868;2023-04-24T08:39:46;1.93;;;1.80;;
33074;SDS011;19433;51.292;6.868;2023-04-24T08:42:11;2.30;;;1.60;;
33074;SDS011;19433;51.292;6.868;2023-04-24T08:44:39;2.10;;;1.57;;
33074;SDS011;19433;51.292;6.868;2023-04-24T08:47:05;8.53;;;3.10;;
33074;SDS011;19433;51.292;6.868;2023-04-24T08:49:33;3.73;;;1.80;;
33074;SDS011;19433;51.292;6.868;2023-04-24T08:51:58;4.10;;;1.90;;
33074;SDS011;19433;51.292;6.868;2023-04-24T08:54:24;2.30;;;1.73;;
33074;SDS011;19433;51.292;6.868;2023-04-24T08:56:50;1.97;;;1.77;;
33074;SDS011;19433;51.292;6.868;2023-04-24T08:59:18;2.27;;;1.67;;
33074;SDS011;19433;51.292;6.868;2023-04-24T09:01:45;2.37;;;1.73;;
33074;SDS011;19433;51.292;6.868;2023-04-24T09:04:13;4.33;;;1.30;;
33074;SDS011;19433;51.292;6.868;2023-04-24T09:06:40;1.90;;;1.80;;
33074;SDS011;19433;51.292;6.868;2023-04-24T09:09:05;2.87;;;2.43;;
33074;SDS011;19433;51.292;6.868;2023-04-24T09:11:31;5.47;;;4.33;;
33074;SDS011;19433;51.292;6.868;2023-04-24T09:14:00;4.67;;;4.27;;
33074;SDS011;19433;51.292;6.868;2023-04-24T09:16:25;7.37;;;5.10;;
33074;SDS011;19433;51.292;6.868;2023-04-24T09:18:51;5.07;;;4.67;;
33074;SDS011;19433;51.292;6.868;2023-04-24T09:21:17;5.43;;;4.93;;
33074;SDS011;19433;51.292;6.868;2023-04-24T09:23:45;8.23;;;6.30;;
33074;SDS011;19433;51.292;6.868;2023-04-24T09:26:11;6.23;;;4.70;;
33074;SDS011;19433;51.292;6.868;2023-04-24T09:28:38;6.57;;;5.90;;
33074;SDS011;19433;51.292;6.868;2023-04-24T09:31:05;10.03;;;6.03;;
33074;SDS011;19433;51.292;6.868;2023-04-24T09:33:31;8.50;;;6.40;;
33074;SDS011;19433;51.292;6.868;2023-04-24T09:35:57;7.43;;;6.67;;
33074;SDS011;19433;51.292;6.868;2023-04-24T09:41:00;6.07;;;5.53;;
33074;SDS011;19433;51.292;6.868;2023-04-24T09:43:28;6.53;;;5.77;;
33074;SDS011;19433;51.292;6.868;2023-04-24T09:45:55;5.97;;;5.37;;
33074;SDS011;19433;51.292;6.868;2023-04-24T09:48:35;9.70;;;7.30;;
33074;SDS011;19433;51.292;6.868;2023-04-24T09:51:01;6.57;;;5.97;;
33074;SDS011;19433;51.292;6.868;2023-04-24T09:53:29;8.30;;;6.80;;
33074;SDS011;19433;51.292;6.868;2023-04-24T09:55:55;11.23;;;6.43;;
33074;SDS011;19433;51.292;6.868;2023-04-24T09:58:27;11.27;;;6.50;;
33074;SDS011;19433;51.292;6.868;2023-04-24T10:00:54;9.90;;;7.50;;
33074;SDS011;19433;51.292;6.868;2023-04-24T10:03:23;9.23;;;7.50;;
33074;SDS011;19433;51.292;6.868;2023-04-24T10:05:51;8.53;;;7.30;;
33074;SDS011;19433;51.292;6.868;2023-04-24T10:08:16;13.07;;;8.27;;
33074;SDS011;19433;51.292;6.868;2023-04-24T10:10:43;7.67;;;6.87;;
33074;SDS011;19433;51.292;6.868;2023-04-24T10:13:09;10.20;;;7.10;;
33074;SDS011;19433;51.292;6.868;2023-04-24T10:15:35;9.73;;;7.53;;
33074;SDS011;19433;51.292;6.868;2023-04-24T10:18:01;11.00;;;7.67;;
33074;SDS011;19433;51.292;6.868;2023-04-24T10:20:29;9.93;;;7.30;;
33074;SDS011;19433;51.292;6.868;2023-04-24T10:22:57;7.17;;;6.10;;
33074;SDS011;19433;51.292;6.868;2023-04-24T10:25:24;9.00;;;6.13;;
33074;SDS011;19433;51.292;6.868;2023-04-24T10:27:52;6.90;;;5.50;;
33074;SDS011;19433;51.292;6.868;2023-04-24T10:30:19;8.40;;;5.70;;
33074;SDS011;19433;51.292;6.868;2023-04-24T10:32:44;6.70;;;4.37;;
33074;SDS011;19433;51.292;6.868;2023-04-24T10:35:13;6.70;;;5.17;;
33074;SDS011;19433;51.292;6.868;2023-04-24T10:37:42;7.20;;;4.43;;
33074;SDS011;19433;51.292;6.868;2023-04-24T10:40:10;14.27;;;4.80;;
33074;SDS011;19433;51.292;6.868;2023-04-24T10:42:39;10.00;;;5.47;;
33074;SDS011;19433;51.292;6.868;2023-04-24T10:45:06;12.20;;;5.93;;
33074;SDS011;19433;51.292;6.868;2023-04-24T10:47:40;7.30;;;4.73;;
33074;SDS011;19433;51.292;6.868;2023-04-24T10:50:12;9.17;;;4.60;;
33074;SDS011;19433;51.292;6.868;2023-04-24T10:52:47;7.30;;;5.43;;
33074;SDS011;19433;51.292;6.868;2023-04-24T10:55:15;8.43;;;5.30;;
33074;SDS011;19433;51.292;6.868;2023-04-24T10:58:00;10.83;;;5.93;;
33074;SDS011;19433;51.292;6.868;2023-04-24T11:00:28;7.77;;;4.87;;
33074;SDS011;19433;51.292;6.868;2023-04-24T11:02:53;6.03;;;5.33;;
33074;SDS011;19433;51.292;6.868;2023-04-24T11:05:20;9.10;;;6.87;;
33074;SDS011;19433;51.292;6.868;2023-04-24T11:10:38;13.13;;;7.07;;
33074;SDS011;19433;51.292;6.868;2023-04-24T11:13:05;12.07;;;7.53;;
33074;SDS011;19433;51.292;6.868;2023-04-24T11:15:30;13.13;;;7.63;;
33074;SDS011;19433;51.292;6.868;2023-04-24T11:17:55;16.40;;;7.30;;
33074;SDS011;19433;51.292;6.868;2023-04-24T11:20:22;16.20;;;8.67;;
33074;SDS011;19433;51.292;6.868;2023-04-24T11:22:48;13.13;;;7.87;;
33074;SDS011;19433;51.292;6.868;2023-04-24T11:25:17;10.70;;;8.90;;
33074;SDS011;19433;51.292;6.868;2023-04-24T11:27:43;11.47;;;7.40;;
33074;SDS011;19433;51.292;6.868;2023-04-24T11:30:11;14.40;;;7.07;;
33074;SDS011;19433;51.292;6.868;2023-04-24T11:32:37;10.30;;;6.47;;
33074;SDS011;19433;51.292;6.868;2023-04-24T11:35:07;15.83;;;5.30;;
33074;SDS011;19433;51.292;6.868;2023-04-24T11:37:44;9.23;;;5.50;;
33074;SDS011;19433;51.292;6.868;2023-04-24T11:40:12;11.17;;;4.90;;
33074;SDS011;19433;51.292;6.868;2023-04-24T11:42:40;8.00;;;4.00;;
33074;SDS011;19433;51.292;6.868;2023-04-24T11:45:08;13.10;;;4.63;;
33074;SDS011;19433;51.292;6.868;2023-04-24T11:47:38;9.83;;;4.03;;
33074;SDS011;19433;51.292;6.868;2023-04-24T11:50:04;8.63;;;4.60;;
33074;SDS011;19433;51.292;6.868;2023-04-24T11:52:33;7.13;;;4.33;;
33074;SDS011;19433;51.292;6.868;2023-04-24T11:55:01;9.60;;;4.37;;
33074;SDS011;19433;51.292;6.868;2023-04-24T11:57:28;8.40;;;5.00;;
33074;SDS011;19433;51.292;6.868;2023-04-24T11:59:58;7.90;;;4.40;;
33074;SDS011;19433;51.292;6.868;2023-04-24T12:02:24;8.57;;;4.63;;
33074;SDS011;19433;51.292;6.868;2023-04-24T12:04:51;7.20;;;4.33;;
33074;SDS011;19433;51.292;6.868;2023-04-24T12:07:17;6.10;;;4.23;;
33074;SDS011;19433;51.292;6.868;2023-04-24T12:09:43;8.03;;;4.90;;
33074;SDS011;19433;51.292;6.868;2023-04-24T12:12:11;10.30;;;4.53;;
33074;SDS011;19433;51.292;6.868;2023-04-24T12:14:45;7.00;;;4.47;;
33074;SDS011;19433;51.292;6.868;2023-04-24T12:17:13;6.97;;;3.97;;
33074;SDS011;19433;51.292;6.868;2023-04-24T12:19:44;7.03;;;3.90;;
33074;SDS011;19433;51.292;6.868;2023-04-24T12:22:10;6.80;;;3.03;;
33074;SDS011;19433;51.292;6.868;2023-04-24T12:24:54;5.37;;;3.03;;
33074;SDS011;19433;51.292;6.868;2023-04-24T12:27:21;9.57;;;3.63;;
33074;SDS011;19433;51.292;6.868;2023-04-24T12:29:56;7.37;;;3.50;;
33074;SDS011;19433;51.292;6.868;2023-04-24T12:32:22;5.63;;;3.67;;
33074;SDS011;19433;51.292;6.868;2023-04-24T12:34:51;5.10;;;3.33;;
33074;SDS011;19433;51.292;6.868;2023-04-24T12:37:18;5.63;;;3.47;;
33074;SDS011;19433;51.292;6.868;2023-04-24T12:42:32;6.60;;;3.23;;
33074;SDS011;19433;51.292;6.868;2023-04-24T12:45:02;4.73;;;2.83;;
33074;SDS011;19433;51.292;6.868;2023-04-24T12:47:29;6.03;;;2.70;;
33074;SDS011;19433;51.292;6.868;2023-04-24T12:49:55;3.73;;;2.40;;
33074;SDS011;19433;51.292;6.868;2023-04-24T12:52:23;3.80;;;2.50;;
33074;SDS011;19433;51.292;6.868;2023-04-24T12:54:52;8.03;;;2.07;;
33074;SDS011;19433;51.292;6.868;2023-04-24T12:57:18;5.70;;;2.30;;
33074;SDS011;19433;51.292;6.868;2023-04-24T12:59:43;2.30;;;1.30;;
33074;SDS011;19433;51.292;6.868;2023-04-24T13:02:09;4.40;;;1.37;;
33074;SDS011;19433;51.292;6.868;2023-04-24T13:04:35;3.80;;;1.80;;
33074;SDS011;19433;51.292;6.868;2023-04-24T13:07:01;6.43;;;2.10;;
33074;SDS011;19433;51.292;6.868;2023-04-24T13:09:26;4.87;;;1.97;;
33074;SDS011;19433;51.292;6.868;2023-04-24T13:11:51;4.67;;;1.60;;
33074;SDS011;19433;51.292;6.868;2023-04-24T13:14:17;4.67;;;2.17;;
33074;SDS011;19433;51.292;6.868;2023-04-24T13:16:42;3.23;;;1.73;;
33074;SDS011;19433;51.292;6.868;2023-04-24T13:19:08;2.07;;;1.60;;
33074;SDS011;19433;51.292;6.868;2023-04-24T13:21:33;5.40;;;1.90;;
33074;SDS011;19433;51.292;6.868;2023-04-24T13:23:58;2.80;;;1.37;;
33074;SDS011;19433;51.292;6.868;2023-04-24T13:26:24;1.97;;;1.70;;
33074;SDS011;19433;51.292;6.868;2023-04-24T13:28:50;3.53;;;1.73;;
33074;SDS011;19433;51.292;6.868;2023-04-24T13:31:15;3.57;;;1.60;;
33074;SDS011;19433;51.292;6.868;2023-04-24T13:33:41;4.60;;;2.10;;
33074;SDS011;19433;51.292;6.868;2023-04-24T13:36:06;2.10;;;1.40;;
33074;SDS011;19433;51.292;6.868;2023-04-24T13:38:32;1.27;;;1.13;;
33074;SDS011;19433;51.292;6.868;2023-04-24T13:40:57;1.73;;;1.33;;
33074;SDS011;19433;51.292;6.868;2023-04-24T13:43:22;2.30;;;1.50;;
33074;SDS011;19433;51.292;6.868;2023-04-24T13:45:48;2.60;;;1.30;;
33074;SDS011;19433;51.292;6.868;2023-04-24T13:48:13;2.37;;;1.50;;
33074;SDS011;19433;51.292;6.868;2023-04-24T13:50:40;3.13;;;1.30;;
33074;SDS011;19433;51.292;6.868;2023-04-24T13:53:06;2.40;;;1.90;;
33074;SDS011;19433;51.292;6.868;2023-04-24T13:55:32;1.77;;;1.50;;
33074;SDS011;19433;51.292;6.868;2023-04-24T13:57:57;3.13;;;1.20;;
33074;SDS011;19433;51.292;6.868;2023-04-24T14:00:22;1.70;;;1.37;;
33074;SDS011;19433;51.292;6.868;2023-04-24T14:02:48;1.93;;;1.40;;
33074;SDS011;19433;51.292;6.868;2023-04-24T14:05:13;2.30;;;2.10;;
33074;SDS011;19433;51.292;6.868;2023-04-24T14:07:40;3.77;;;1.50;;
33074;SDS011;19433;51.292;6.868;2023-04-24T14:10:06;1.40;;;1.23;;
33074;SDS011;19433;51.292;6.868;2023-04-24T14:12:32;3.77;;;1.57;;
33074;SDS011;19433;51.292;6.868;2023-04-24T14:14:57;3.00;;;1.93;;
33074;SDS011;19433;51.292;6.868;2023-04-24T14:17:23;2.20;;;1.40;;
33074;SDS011;19433;51.292;6.868;2023-04-24T14:19:48;2.23;;;1.40;;
33074;SDS011;19433;51.292;6.868;2023-04-24T14:22:13;1.40;;;1.30;;
33074;SDS011;19433;51.292;6.868;2023-04-24T14:24:39;1.77;;;1.40;;
33074;SDS011;19433;51.292;6.868;2023-04-24T14:27:04;1.40;;;1.27;;
33074;SDS011;19433;51.292;6.868;2023-04-24T14:29:29;2.70;;;2.40;;
33074;SDS011;19433;51.292;6.868;2023-04-24T14:31:55;3.60;;;1.27;;
33074;SDS011;19433;51.292;6.868;2023-04-24T14:34:20;2.63;;;2.40;;
33074;SDS011;19433;51.292;6.868;2023-04-24T14:36:45;1.57;;;1.00;;
33074;SDS011;19433;51.292;6.868;2023-04-24T14:39:11;2.60;;;1.70;;
33074;SDS011;19433;51.292;6.868;2023-04-24T14:41:36;1.93;;;1.50;;
33074;SDS011;19433;51.292;6.868;2023-04-24T14:44:02;1.60;;;1.50;;
33074;SDS011;19433;51.292;6.868;2023-04-24T14:46:29;2.13;;;1.70;;